עמוד ראשי
METAR-TAF:

METAR-TAF

שדות תעופה :

Leuchars, סקוטלנד

קו רוחב: 56-23N, קו אורך: 002-52W, גובה: 12מטר

תצפית מזג אוויר נוכחית

הדו"ח נערך לפני 41דקות, בשעה 21:50 UTC
רוח 6קשר מכיוון מזרח/דרום-מזרח
טמפרטורת 11 צלסיוס
לחות 94%
לחץ 1018 hPa
ראות: 5000מטר
מעונן בגובה 300רגל
אד

METAR: EGQL 182150Z 11006KT 5000 BR OVC003 11/10 Q1018 RMK YLO2

זמן: 23:31 (22:31 UTC)

תחזית

הדו"ח נערך לפני 3 שעות ו 5דקות, בשעה 19:26 UTC
תחזית בתוקף מ 18 ב 21 UTC עד 19 ב 06 UTC
רוח 6קשר מכיוון מזרח
ראות: 5000מטר
מעונן בגובה 500רגל
אד
הסתברות 40%
18 ב 21 UTC עד 19 ב 06 UTC
ראות: 0500מטר
מעונן בגובה נמוך מ 100רגל
ערפל,

TAF: EGQL 181926Z 1821/1906 09006KT 5000 BR OVC005 PROB40 1821/1906 0500 FG OVC000

תצפיות ותחזיות מזג אוויר לגבי יותר מ- 4,000 שדות תעופה ברחבי העולם. דוחות METAR ו- TAF.

התחנות הזמינות מסומנות בנקודות צהובות ואדומות על גבי המפה.

העבר את העכבר לנקודה הצבעונית על מנת לראות את שם התחנה.

לאחר מכן, לחץ כדי לראות את תוכן ואת תחזיות מזג האוויר.

כדי לשנות את המפה: לחץ על הכפתורים הירוקים עם הפלוס השחור כדי להתקרב; על הכפתור הירוק עם המקף כדי להתרחק; או בחיצים הירוקים למפות סמוכות.


METAR-TAF: